createdAt,value
2019-04-03T00:02:18.882Z,68.09
2019-04-03T00:04:48.666Z,67.52
2019-04-03T00:07:18.418Z,67.90
2019-04-03T00:09:48.244Z,67.95
2019-04-03T00:12:18.171Z,67.80
2019-04-03T00:14:48.100Z,67.66
2019-04-03T00:17:17.927Z,68.31
2019-04-03T00:19:48.257Z,67.65
2019-04-03T00:22:18.139Z,67.60
2019-04-03T00:24:47.983Z,68.10
2019-04-03T00:27:17.781Z,68.54
2019-04-03T00:29:47.634Z,68.43
2019-04-03T00:32:17.492Z,68.44
2019-04-03T00:34:47.379Z,68.32
2019-04-03T00:37:18.836Z,68.52
2019-04-03T00:39:48.733Z,68.30
2019-04-03T00:42:18.571Z,68.56
2019-04-03T00:44:48.557Z,68.67
2019-04-03T00:47:18.382Z,69.18
2019-04-03T00:49:48.151Z,69.54
2019-04-03T00:52:17.955Z,69.38
2019-04-03T00:54:47.993Z,69.54
2019-04-03T00:57:17.966Z,69.75
2019-04-03T00:59:47.864Z,69.87
2019-04-03T01:02:17.690Z,70.13
2019-04-03T01:04:47.567Z,70.99
2019-04-03T01:07:17.321Z,70.98
2019-04-03T01:09:47.152Z,71.03
2019-04-03T01:12:17.361Z,71.48
2019-04-03T01:14:47.146Z,71.62
2019-04-03T01:17:16.907Z,71.10
2019-04-03T01:19:46.639Z,71.42
2019-04-03T01:22:16.393Z,71.98
2019-04-03T01:24:46.302Z,71.80
2019-04-03T01:27:16.090Z,71.91
2019-04-03T01:29:45.867Z,72.42
2019-04-03T01:32:16.207Z,72.39
2019-04-03T01:34:47.650Z,71.96
2019-04-03T01:37:18.928Z,72.30
2019-04-03T01:39:50.754Z,72.04
2019-04-03T01:42:22.297Z,71.80
2019-04-03T01:44:52.190Z,71.95
2019-04-03T01:47:22.090Z,72.14
2019-04-03T01:49:51.846Z,72.52
2019-04-03T01:52:21.622Z,72.29
2019-04-03T01:54:51.369Z,72.67
2019-04-03T01:57:21.126Z,72.57
2019-04-03T01:59:50.935Z,72.91
2019-04-03T02:02:20.712Z,73.35
2019-04-03T02:04:50.447Z,73.29
2019-04-03T02:07:20.181Z,73.61
2019-04-03T02:09:49.938Z,73.44
2019-04-03T02:12:20.484Z,73.44
2019-04-03T02:14:51.712Z,73.58
2019-04-03T02:17:23.497Z,73.38
2019-04-03T02:19:55.997Z,73.72
2019-04-03T02:22:24.981Z,73.98
2019-04-03T02:24:54.794Z,74.10
2019-04-03T02:27:24.652Z,74.23
2019-04-03T02:29:54.497Z,74.38
2019-04-03T02:32:24.923Z,74.25
2019-04-03T02:34:54.779Z,74.06
2019-04-03T02:37:24.598Z,74.35
2019-04-03T02:39:59.050Z,74.19
2019-04-03T02:42:26.111Z,74.23
2019-04-03T02:44:55.850Z,74.59
2019-04-03T02:47:25.576Z,74.57
2019-04-03T02:49:55.787Z,74.47
2019-04-03T02:52:26.485Z,74.68
2019-04-03T02:54:56.411Z,75.18
2019-04-03T02:57:26.158Z,75.55
2019-04-03T02:59:58.664Z,75.65
2019-04-03T03:02:27.664Z,75.66
2019-04-03T03:04:57.522Z,76.00
2019-04-03T03:07:28.007Z,76.26
2019-04-03T03:09:58.182Z,76.22
2019-04-03T03:12:28.762Z,76.85
2019-04-03T03:14:59.415Z,77.17
2019-04-03T03:17:30.591Z,77.01
2019-04-03T03:20:06.556Z,77.82
2019-04-03T03:22:36.186Z,78.24
2019-04-03T03:25:08.050Z,78.31
2019-04-03T03:27:41.196Z,78.64
2019-04-03T03:30:30.507Z,79.06
2019-04-03T03:32:42.519Z,79.20
2019-04-03T03:35:16.793Z,78.86
2019-04-03T03:37:46.136Z,79.20
2019-04-03T03:40:17.191Z,79.28
2019-04-03T03:42:47.616Z,79.25
2019-04-03T03:45:21.607Z,79.47
2019-04-03T03:47:53.322Z,79.99
2019-04-03T03:50:25.766Z,80.19
2019-04-03T03:52:57.284Z,80.68
2019-04-03T03:55:27.501Z,81.05
2019-04-03T03:57:59.635Z,81.03
2019-04-03T04:00:30.063Z,80.98
2019-04-03T04:02:59.950Z,81.33
2019-04-03T04:05:30.038Z,81.38
2019-04-03T04:07:59.887Z,81.52
2019-04-03T04:10:34.846Z,81.38
2019-04-03T04:13:02.407Z,81.52
2019-04-03T04:15:32.833Z,81.52
2019-04-03T04:18:03.932Z,80.98
2019-04-03T04:20:36.690Z,81.39
2019-04-03T04:23:05.639Z,81.88
2019-04-03T04:25:36.012Z,81.61
2019-04-03T04:28:08.708Z,82.01
2019-04-03T04:30:37.620Z,82.32
2019-04-03T04:33:07.522Z,82.49
2019-04-03T04:35:37.544Z,82.67
2019-04-03T04:38:07.476Z,82.68
2019-04-03T04:40:37.315Z,83.02
2019-04-03T04:43:08.227Z,83.18
2019-04-03T04:45:38.340Z,83.20
2019-04-03T04:48:08.169Z,83.29
2019-04-03T04:50:37.984Z,83.27
2019-04-03T04:53:08.865Z,83.30
2019-04-03T04:55:38.804Z,83.37
2019-04-03T04:58:09.902Z,83.67
2019-04-03T05:00:40.160Z,84.15
2019-04-03T05:03:09.990Z,84.33
2019-04-03T05:05:39.719Z,84.46
2019-04-03T05:08:09.474Z,84.45
2019-04-03T05:10:39.233Z,84.53
2019-04-03T05:13:09.053Z,84.65
2019-04-03T05:15:38.836Z,84.70
2019-04-03T05:18:08.832Z,84.78
2019-04-03T05:20:38.669Z,84.32
2019-04-03T05:23:08.461Z,84.46
2019-04-03T05:25:38.297Z,84.36
2019-04-03T05:28:08.266Z,84.18
2019-04-03T05:30:38.693Z,84.29
2019-04-03T05:33:10.611Z,84.36
2019-04-03T05:35:40.035Z,84.69
2019-04-03T05:38:09.947Z,84.38
2019-04-03T05:40:40.115Z,84.38
2019-04-03T05:43:09.933Z,84.27
2019-04-03T05:45:41.772Z,84.40
2019-04-03T05:48:13.357Z,84.24
2019-04-03T05:50:42.556Z,84.20
2019-04-03T05:53:17.890Z,84.06
2019-04-03T05:55:47.841Z,84.07
2019-04-03T05:58:17.613Z,83.87
2019-04-03T06:00:47.295Z,83.05
2019-04-03T06:03:16.986Z,83.13
2019-04-03T06:05:46.679Z,83.27
2019-04-03T06:08:17.903Z,83.33
2019-04-03T06:10:47.758Z,83.06
2019-04-03T06:13:17.627Z,82.91
2019-04-03T06:15:47.420Z,82.88
2019-04-03T06:18:17.757Z,82.88
2019-04-03T06:20:48.355Z,82.37
2019-04-03T06:23:21.013Z,82.82
2019-04-03T06:25:49.754Z,81.98
2019-04-03T06:28:19.474Z,81.60
2019-04-03T06:30:49.400Z,81.38
2019-04-03T06:33:19.509Z,81.57
2019-04-03T06:35:49.191Z,81.60
2019-04-03T06:38:19.143Z,81.66
2019-04-03T06:40:49.034Z,81.51
2019-04-03T06:43:18.853Z,81.13
2019-04-03T06:45:48.672Z,80.21
2019-04-03T06:48:18.501Z,80.67
2019-04-03T06:50:48.246Z,80.29
2019-04-03T06:53:17.937Z,80.27
2019-04-03T06:55:47.868Z,80.07
2019-04-03T06:58:17.681Z,79.74
2019-04-03T07:00:47.688Z,79.55
2019-04-03T07:03:17.538Z,79.06
2019-04-03T07:05:47.383Z,79.68
2019-04-03T07:08:28.983Z,79.67
2019-04-03T07:10:55.175Z,80.04
2019-04-03T07:13:20.946Z,80.23
2019-04-03T07:15:50.787Z,79.66
2019-04-03T07:18:20.669Z,79.52
2019-04-03T07:20:51.857Z,79.37
2019-04-03T07:23:21.857Z,79.21
2019-04-03T07:25:51.671Z,79.58
2019-04-03T07:28:21.418Z,79.30
2019-04-03T07:30:53.552Z,79.38
2019-04-03T07:33:22.977Z,79.64
2019-04-03T07:35:52.902Z,79.57
2019-04-03T07:38:22.808Z,79.43
2019-04-03T07:40:52.874Z,78.95
2019-04-03T07:43:22.638Z,78.38
2019-04-03T07:45:52.430Z,78.39
2019-04-03T07:48:22.185Z,78.66
2019-04-03T07:50:51.930Z,78.29
2019-04-03T07:53:21.883Z,78.03
2019-04-03T07:55:51.954Z,77.65
2019-04-03T07:58:25.036Z,76.58
2019-04-03T08:00:53.289Z,76.43
2019-04-03T08:03:23.215Z,76.25
2019-04-03T08:05:55.879Z,75.94
2019-04-03T08:08:24.541Z,76.13
2019-04-03T08:10:54.256Z,75.61
2019-04-03T08:13:24.066Z,75.22
2019-04-03T08:15:53.773Z,74.61
2019-04-03T08:18:23.606Z,75.30
2019-04-03T08:20:53.420Z,74.51
2019-04-03T08:23:23.151Z,74.38
2019-04-03T08:25:54.292Z,73.98
2019-04-03T08:28:28.076Z,73.72
2019-04-03T08:30:55.919Z,74.48
2019-04-03T08:33:27.456Z,74.77
2019-04-03T08:35:57.096Z,74.79
2019-04-03T08:38:26.958Z,75.53
2019-04-03T08:40:57.123Z,74.13
2019-04-03T08:43:27.040Z,74.40
2019-04-03T08:45:56.780Z,73.64
2019-04-03T08:48:26.499Z,73.30
2019-04-03T08:50:58.164Z,73.61
2019-04-03T08:53:34.783Z,73.42
2019-04-03T08:56:04.678Z,73.78
2019-04-03T08:58:34.710Z,73.34
2019-04-03T09:01:05.367Z,72.76
2019-04-03T09:03:35.305Z,72.56
2019-04-03T09:06:05.423Z,72.58
2019-04-03T09:08:35.351Z,72.38
2019-04-03T09:11:05.550Z,71.05
2019-04-03T09:13:35.700Z,71.27
2019-04-03T09:16:06.052Z,70.64
2019-04-03T09:18:38.199Z,70.62
2019-04-03T09:21:07.383Z,70.27
2019-04-03T09:23:37.151Z,70.14
2019-04-03T09:26:06.927Z,70.16
2019-04-03T09:28:37.105Z,70.03
2019-04-03T09:31:07.190Z,70.07
2019-04-03T09:33:37.040Z,70.37
2019-04-03T09:36:06.747Z,70.03
2019-04-03T09:38:36.604Z,70.43
2019-04-03T09:41:06.434Z,70.14
2019-04-03T09:43:39.054Z,70.34
2019-04-03T09:46:07.929Z,70.71
2019-04-03T09:48:38.029Z,71.04
2019-04-03T09:51:09.637Z,70.60
2019-04-03T09:53:39.398Z,70.95
2019-04-03T09:56:09.319Z,70.44
2019-04-03T09:58:39.161Z,69.97
2019-04-03T10:01:08.981Z,69.37
2019-04-03T10:03:38.767Z,69.94
2019-04-03T10:06:08.616Z,70.53
2019-04-03T10:08:40.338Z,70.38
2019-04-03T10:11:10.926Z,70.70
2019-04-03T10:13:40.699Z,71.47
2019-04-03T10:16:10.593Z,70.69
2019-04-03T10:18:41.784Z,70.99
2019-04-03T10:21:12.473Z,71.29
2019-04-03T10:23:42.298Z,72.12
2019-04-03T10:26:12.231Z,72.06
2019-04-03T10:28:43.019Z,72.96
2019-04-03T10:31:12.999Z,74.59
2019-04-03T10:33:43.027Z,76.76
2019-04-03T10:36:13.183Z,77.51
2019-04-03T10:38:42.953Z,79.01
2019-04-03T10:41:12.921Z,80.40
2019-04-03T10:43:42.791Z,81.03
2019-04-03T10:46:12.702Z,82.62
2019-04-03T10:48:42.475Z,82.80
2019-04-03T10:51:12.292Z,83.95
2019-04-03T10:53:52.447Z,85.01
2019-04-03T10:56:22.568Z,84.62
2019-04-03T10:58:52.336Z,84.87
2019-04-03T11:01:22.402Z,85.02
2019-04-03T11:03:52.443Z,85.59
2019-04-03T11:06:22.374Z,85.30
2019-04-03T11:08:52.283Z,86.00
2019-04-03T11:11:21.980Z,86.16
2019-04-03T11:13:51.945Z,86.57
2019-04-03T11:16:21.749Z,86.70
2019-04-03T11:18:58.469Z,86.84
2019-04-03T11:21:23.202Z,86.54
2019-04-03T11:23:52.943Z,86.70
2019-04-03T11:26:24.505Z,85.05
2019-04-03T11:28:54.352Z,85.55
2019-04-03T11:31:28.028Z,84.87
2019-04-03T11:33:55.723Z,86.36
2019-04-03T11:36:29.440Z,85.72
2019-04-03T11:39:10.687Z,86.39
2019-04-03T11:41:28.426Z,86.29
2019-04-03T11:43:58.545Z,86.44
2019-04-03T11:46:28.287Z,86.26
2019-04-03T11:48:58.130Z,86.43
2019-04-03T11:51:29.711Z,86.21
2019-04-03T11:53:59.480Z,86.85
2019-04-03T11:56:29.281Z,86.78
2019-04-03T11:58:59.063Z,86.83
2019-04-03T12:01:28.885Z,86.88
2019-04-03T12:03:58.672Z,86.92
2019-04-03T12:06:28.854Z,87.34
2019-04-03T12:09:00.948Z,87.80
2019-04-03T12:11:30.063Z,88.32
2019-04-03T12:13:59.818Z,88.42
2019-04-03T12:16:29.640Z,88.84
2019-04-03T12:18:59.571Z,89.24
2019-04-03T12:21:29.354Z,89.67
2019-04-03T12:23:59.550Z,89.67
2019-04-03T12:26:29.690Z,90.00
2019-04-03T12:28:59.646Z,90.09
2019-04-03T12:31:29.404Z,90.38
2019-04-03T12:34:04.511Z,90.39
2019-04-03T12:36:30.571Z,90.48
2019-04-03T12:39:00.291Z,91.07
2019-04-03T12:41:30.031Z,91.07
2019-04-03T12:44:00.275Z,90.84
2019-04-03T12:46:40.983Z,91.22
2019-04-03T12:49:10.729Z,91.03
2019-04-03T12:51:40.442Z,90.91
2019-04-03T12:54:13.378Z,90.62
2019-04-03T12:56:43.766Z,90.71
2019-04-03T12:59:13.536Z,90.54
2019-04-03T13:01:43.731Z,90.84
2019-04-03T13:04:13.421Z,90.70
2019-04-03T13:06:43.494Z,91.96
2019-04-03T13:09:13.329Z,91.93
2019-04-03T13:11:43.172Z,91.23
2019-04-03T13:14:22.842Z,91.41
2019-04-03T13:16:46.624Z,91.49
2019-04-03T13:19:16.192Z,91.84
2019-04-03T13:21:46.090Z,92.24
2019-04-03T13:24:17.130Z,91.76
2019-04-03T13:26:47.225Z,91.61
2019-04-03T13:29:16.903Z,91.40
2019-04-03T13:31:47.145Z,91.54
2019-04-03T13:34:17.620Z,91.63
2019-04-03T13:36:50.451Z,91.97
2019-04-03T13:39:19.063Z,91.85
2019-04-03T13:41:49.280Z,92.27
2019-04-03T13:44:19.051Z,91.82
2019-04-03T13:46:48.934Z,92.23
2019-04-03T13:49:19.634Z,92.23
2019-04-03T13:51:49.746Z,92.08
2019-04-03T13:54:20.618Z,91.98
2019-04-03T13:56:52.986Z,91.79
2019-04-03T13:59:23.029Z,92.57
2019-04-03T14:01:53.198Z,92.13
2019-04-03T14:04:23.556Z,92.54
2019-04-03T14:06:53.755Z,92.53
2019-04-03T14:09:23.976Z,92.71
2019-04-03T14:11:53.840Z,92.77
2019-04-03T14:14:23.599Z,92.96
2019-04-03T14:16:53.640Z,92.89
2019-04-03T14:19:24.960Z,92.21
2019-04-03T14:21:55.399Z,92.00
2019-04-03T14:24:37.737Z,91.88
2019-04-03T14:26:56.723Z,92.00
2019-04-03T14:29:29.015Z,91.34
2019-04-03T14:31:58.145Z,91.20
2019-04-03T14:34:30.366Z,91.29
2019-04-03T14:36:59.695Z,91.23
2019-04-03T14:39:29.746Z,91.81
2019-04-03T14:41:59.768Z,91.73
2019-04-03T14:44:29.713Z,91.80
2019-04-03T14:46:59.906Z,91.91
2019-04-03T14:49:31.749Z,92.22
2019-04-03T14:52:01.252Z,92.40
2019-04-03T14:54:31.753Z,92.70
2019-04-03T14:57:11.093Z,92.84
2019-04-03T14:59:35.205Z,92.81
2019-04-03T15:02:04.760Z,92.57
2019-04-03T15:04:36.503Z,92.85
2019-04-03T15:07:08.851Z,93.16
2019-04-03T15:09:37.774Z,92.71
2019-04-03T15:12:08.177Z,93.02
2019-04-03T15:14:38.096Z,92.97
2019-04-03T15:17:08.250Z,92.65
2019-04-03T15:19:38.076Z,92.30
2019-04-03T15:22:07.946Z,92.05
2019-04-03T15:24:37.782Z,92.12
2019-04-03T15:27:07.703Z,91.85
2019-04-03T15:29:38.817Z,92.00
2019-04-03T15:32:08.782Z,91.78
2019-04-03T15:34:38.891Z,91.48
2019-04-03T15:37:09.313Z,91.58
2019-04-03T15:39:39.558Z,91.72
2019-04-03T15:42:09.440Z,91.43
2019-04-03T15:44:39.451Z,91.30
2019-04-03T15:47:10.376Z,91.17
2019-04-03T15:49:40.191Z,90.74
2019-04-03T15:52:11.084Z,90.65
2019-04-03T15:54:46.344Z,90.95
2019-04-03T15:57:18.770Z,90.89
2019-04-03T15:59:48.007Z,91.02
2019-04-03T16:02:18.050Z,90.76
2019-04-03T16:04:47.822Z,90.79
2019-04-03T16:07:17.607Z,91.00
2019-04-03T16:09:49.634Z,90.50
2019-04-03T16:12:19.103Z,90.16
2019-04-03T16:14:51.142Z,90.27
2019-04-03T16:17:20.509Z,89.56
2019-04-03T16:19:52.309Z,90.23
2019-04-03T16:22:22.558Z,89.73
2019-04-03T16:24:53.838Z,89.95
2019-04-03T16:27:23.723Z,89.80
2019-04-03T16:29:54.007Z,89.78
2019-04-03T16:32:26.899Z,88.61
2019-04-03T16:34:55.902Z,88.58
2019-04-03T16:37:25.699Z,88.73
2019-04-03T16:39:57.362Z,88.67
2019-04-03T16:42:27.649Z,88.75
2019-04-03T16:44:58.237Z,88.23
2019-04-03T16:47:28.227Z,88.34
2019-04-03T16:49:58.728Z,88.41
2019-04-03T16:52:32.469Z,88.44
2019-04-03T16:55:02.414Z,88.32
2019-04-03T16:57:32.399Z,88.53
2019-04-03T17:00:08.472Z,88.76
2019-04-03T17:02:39.462Z,88.81
2019-04-03T17:05:11.160Z,87.83
2019-04-03T17:07:45.127Z,88.08
2019-04-03T17:10:15.262Z,88.44
2019-04-03T17:12:45.681Z,88.78
2019-04-03T17:15:17.050Z,88.74
2019-04-03T17:17:50.928Z,88.64
2019-04-03T17:20:30.285Z,89.21
2019-04-03T17:23:00.070Z,89.19
2019-04-03T17:25:44.171Z,89.54
2019-04-03T17:28:07.509Z,88.72
2019-04-03T17:30:35.284Z,88.32
2019-04-03T17:33:05.700Z,88.22
2019-04-03T17:35:36.722Z,87.89
2019-04-03T17:38:08.345Z,88.25
2019-04-03T17:40:39.717Z,88.37
2019-04-03T17:43:12.820Z,88.38
2019-04-03T17:45:46.194Z,87.99
2019-04-03T17:48:15.698Z,88.40
2019-04-03T17:50:48.363Z,89.06
2019-04-03T17:53:19.049Z,88.91
2019-04-03T17:55:48.913Z,88.99
2019-04-03T17:58:18.654Z,89.17
2019-04-03T18:00:51.654Z,89.04
2019-04-03T18:03:20.063Z,89.23
2019-04-03T18:05:49.949Z,89.02
2019-04-03T18:08:19.689Z,89.03
2019-04-03T18:10:50.530Z,89.13
2019-04-03T18:13:35.194Z,89.19
2019-04-03T18:16:06.007Z,89.49
2019-04-03T18:18:37.653Z,89.44
2019-04-03T18:21:07.952Z,89.45
2019-04-03T18:23:37.826Z,89.54
2019-04-03T18:26:09.280Z,89.88
2019-04-03T18:28:40.057Z,90.02
2019-04-03T18:31:09.822Z,89.95
2019-04-03T18:33:39.697Z,89.87
2019-04-03T18:36:09.617Z,89.94
2019-04-03T18:38:39.415Z,89.58
2019-04-03T18:41:09.282Z,88.91
2019-04-03T18:43:45.288Z,88.37
2019-04-03T18:46:31.302Z,88.61
2019-04-03T18:49:01.047Z,88.79
2019-04-03T18:51:36.577Z,89.28
2019-04-03T18:54:09.775Z,89.41
2019-04-03T18:56:40.543Z,89.58
2019-04-03T18:59:10.277Z,89.65
2019-04-03T19:01:40.034Z,89.35
2019-04-03T19:04:11.297Z,90.26
2019-04-03T19:06:41.167Z,89.90
2019-04-03T19:09:10.909Z,90.34
2019-04-03T19:11:41.508Z,90.23
2019-04-03T19:14:26.079Z,89.45
2019-04-03T19:16:47.949Z,89.25
2019-04-03T19:19:17.154Z,89.38
2019-04-03T19:22:06.427Z,89.33
2019-04-03T19:24:36.359Z,89.47
2019-04-03T19:27:06.103Z,89.71
2019-04-03T19:29:40.544Z,90.15
2019-04-03T19:32:12.246Z,90.09
2019-04-03T19:34:41.931Z,90.35
2019-04-03T19:37:11.848Z,89.96
2019-04-03T19:39:45.110Z,90.26
2019-04-03T19:42:14.997Z,90.19
2019-04-03T19:44:47.133Z,90.43
2019-04-03T19:47:19.875Z,90.68
2019-04-03T19:49:50.371Z,90.82
2019-04-03T19:52:25.081Z,91.23
2019-04-03T19:54:55.871Z,91.42
2019-04-03T19:57:26.726Z,91.43
2019-04-03T19:59:57.236Z,91.69
2019-04-03T20:02:28.113Z,91.86
2019-04-03T20:04:57.942Z,91.85
2019-04-03T20:07:27.775Z,91.92
2019-04-03T20:09:57.615Z,92.06
2019-04-03T20:12:27.478Z,91.93
2019-04-03T20:14:58.993Z,91.99
2019-04-03T20:17:29.256Z,92.20
2019-04-03T20:20:00.878Z,92.34
2019-04-03T20:22:38.185Z,92.47
2019-04-03T20:25:08.432Z,91.92
2019-04-03T20:27:39.794Z,91.85
2019-04-03T20:30:10.159Z,92.15
2019-04-03T20:32:40.926Z,92.11
2019-04-03T20:35:11.507Z,92.17
2019-04-03T20:37:43.820Z,92.32
2019-04-03T20:40:14.403Z,91.80
2019-04-03T20:42:44.253Z,91.66
2019-04-03T20:45:21.386Z,91.79
2019-04-03T20:47:51.322Z,91.97
2019-04-03T20:50:24.642Z,92.20
2019-04-03T20:52:56.839Z,92.55
2019-04-03T20:55:25.934Z,92.72
2019-04-03T20:57:56.328Z,92.46
2019-04-03T21:00:26.116Z,92.52
2019-04-03T21:02:55.969Z,93.06
2019-04-03T21:05:25.874Z,92.64
2019-04-03T21:07:56.284Z,92.60
2019-04-03T21:10:26.327Z,92.72
2019-04-03T21:12:56.076Z,92.92
2019-04-03T21:15:25.912Z,92.50
2019-04-03T21:17:55.653Z,92.51
2019-04-03T21:20:25.412Z,92.74
2019-04-03T21:22:55.217Z,92.69
2019-04-03T21:25:24.921Z,92.56
2019-04-03T21:27:54.589Z,92.86
2019-04-03T21:30:24.793Z,93.21
2019-04-03T21:32:54.494Z,93.29
2019-04-03T21:35:24.258Z,93.21
2019-04-03T21:37:54.014Z,93.16
2019-04-03T21:40:23.706Z,93.34
2019-04-03T21:42:57.631Z,93.29
2019-04-03T21:45:25.650Z,93.24
2019-04-03T21:47:55.398Z,93.33
2019-04-03T21:50:25.088Z,92.86
2019-04-03T21:52:54.758Z,93.14
2019-04-03T21:55:24.455Z,93.20
2019-04-03T21:57:54.203Z,93.26
2019-04-03T22:00:40.404Z,93.27
2019-04-03T22:03:10.102Z,93.16
2019-04-03T22:05:39.877Z,93.43
2019-04-03T22:08:09.651Z,93.33
2019-04-03T22:10:39.336Z,93.23
2019-04-03T22:13:09.105Z,92.96
2019-04-03T22:15:38.818Z,92.88
2019-04-03T22:18:08.581Z,91.34
2019-04-03T22:20:38.359Z,90.89
2019-04-03T22:23:08.035Z,91.46
2019-04-03T22:25:39.472Z,92.15
2019-04-03T22:28:09.864Z,92.51
2019-04-03T22:30:39.596Z,92.68
2019-04-03T22:33:09.435Z,92.84
2019-04-03T22:35:39.143Z,92.43
2019-04-03T22:38:08.835Z,92.14
2019-04-03T22:40:39.077Z,91.68
2019-04-03T22:43:09.922Z,91.33
2019-04-03T22:45:39.703Z,91.41
2019-04-03T22:48:09.449Z,91.65
2019-04-03T22:50:39.147Z,92.17
2019-04-03T22:53:14.941Z,92.25
2019-04-03T22:55:46.513Z,92.12
2019-04-03T22:58:16.198Z,91.85
2019-04-03T23:00:46.100Z,92.08
2019-04-03T23:03:15.808Z,91.87
2019-04-03T23:05:47.735Z,92.11
2019-04-03T23:08:17.085Z,91.81
2019-04-03T23:10:46.800Z,91.80
2019-04-03T23:13:17.317Z,91.90
2019-04-03T23:15:47.004Z,92.20
2019-04-03T23:18:16.691Z,92.14
2019-04-03T23:20:46.400Z,92.22
2019-04-03T23:23:16.091Z,92.29
2019-04-03T23:25:45.882Z,92.11
2019-04-03T23:28:15.585Z,92.34
2019-04-03T23:30:45.369Z,92.12
2019-04-03T23:33:16.940Z,92.31
2019-04-03T23:35:46.937Z,91.86
2019-04-03T23:38:16.774Z,91.14
2019-04-03T23:40:46.482Z,90.71
2019-04-03T23:43:16.176Z,91.00
2019-04-03T23:45:46.009Z,91.11
2019-04-03T23:48:17.580Z,91.42
2019-04-03T23:50:47.259Z,91.68
2019-04-03T23:53:16.973Z,91.54
2019-04-03T23:55:46.756Z,91.35
2019-04-03T23:58:16.695Z,91.09
